createdAt,value
2024-02-19T00:00:21.742Z,0.00
2024-02-19T00:01:21.913Z,0.00
2024-02-19T00:02:21.681Z,0.00
2024-02-19T00:03:21.663Z,0.00
2024-02-19T00:04:21.709Z,0.00
2024-02-19T00:05:21.805Z,0.00
2024-02-19T00:06:21.640Z,0.00
2024-02-19T00:07:21.691Z,0.00
2024-02-19T00:08:21.604Z,0.00
2024-02-19T00:09:21.719Z,0.00
2024-02-19T00:10:21.720Z,0.00
2024-02-19T00:11:21.661Z,0.00
2024-02-19T00:12:21.608Z,0.00
2024-02-19T00:13:21.600Z,0.00
2024-02-19T00:14:21.598Z,0.00
2024-02-19T00:15:21.544Z,0.00
2024-02-19T00:16:21.628Z,0.00
2024-02-19T00:17:21.595Z,0.00
2024-02-19T00:18:21.577Z,0.00
2024-02-19T00:19:21.661Z,0.00
2024-02-19T00:20:21.489Z,0.00
2024-02-19T00:21:21.499Z,0.00
2024-02-19T00:22:21.527Z,0.00
2024-02-19T00:23:21.488Z,0.00
2024-02-19T00:24:21.473Z,0.00
2024-02-19T00:25:21.501Z,0.00
2024-02-19T00:26:21.426Z,0.00
2024-02-19T00:27:21.424Z,0.00
2024-02-19T00:28:21.491Z,0.00
2024-02-19T00:29:21.428Z,0.00
2024-02-19T00:30:21.391Z,0.00
2024-02-19T00:31:21.429Z,0.00
2024-02-19T00:32:21.474Z,0.00
2024-02-19T00:33:21.454Z,0.00
2024-02-19T00:34:21.356Z,0.00
2024-02-19T00:35:21.424Z,0.00
2024-02-19T00:36:21.376Z,0.00
2024-02-19T00:37:21.373Z,0.00
2024-02-19T00:38:21.316Z,0.00
2024-02-19T00:39:21.303Z,0.00
2024-02-19T00:40:21.341Z,0.00
2024-02-19T00:41:21.274Z,0.00
2024-02-19T00:42:21.291Z,0.00
2024-02-19T00:43:21.272Z,0.00
2024-02-19T00:44:21.231Z,0.00
2024-02-19T00:45:21.260Z,0.00
2024-02-19T00:46:21.231Z,0.00
2024-02-19T00:47:21.410Z,0.00
2024-02-19T00:48:21.244Z,0.00
2024-02-19T00:49:21.277Z,0.00
2024-02-19T00:50:21.301Z,0.00
2024-02-19T00:51:21.202Z,0.00
2024-02-19T00:52:21.258Z,0.00
2024-02-19T00:53:21.163Z,0.00
2024-02-19T00:54:21.126Z,0.00
2024-02-19T00:55:21.153Z,0.00
2024-02-19T00:56:21.117Z,0.00
2024-02-19T00:57:21.081Z,0.00
2024-02-19T00:58:21.173Z,0.00
2024-02-19T00:59:21.151Z,0.00
2024-02-19T01:00:21.104Z,0.00
2024-02-19T01:01:21.154Z,0.00
2024-02-19T01:02:21.054Z,0.00
2024-02-19T01:03:21.062Z,0.00
2024-02-19T01:04:21.174Z,0.00
2024-02-19T01:05:21.054Z,0.00
2024-02-19T01:06:21.052Z,0.00
2024-02-19T01:07:21.038Z,0.00
2024-02-19T01:08:21.015Z,0.00
2024-02-19T01:09:20.973Z,0.00
2024-02-19T01:10:21.114Z,0.00
2024-02-19T01:11:20.981Z,0.00
2024-02-19T01:12:20.977Z,0.00
2024-02-19T01:13:21.011Z,0.00
2024-02-19T01:14:20.918Z,0.00
2024-02-19T01:15:20.996Z,0.00
2024-02-19T01:16:20.969Z,0.00
2024-02-19T01:17:20.901Z,0.00
2024-02-19T01:18:20.923Z,0.00
2024-02-19T01:19:21.046Z,0.00
2024-02-19T01:20:20.884Z,0.00
2024-02-19T01:21:20.849Z,0.00
2024-02-19T01:22:20.966Z,0.00
2024-02-19T01:23:20.857Z,0.00
2024-02-19T01:24:20.828Z,0.00
2024-02-19T01:25:20.908Z,0.00
2024-02-19T01:26:20.790Z,0.00
2024-02-19T01:27:20.788Z,0.00
2024-02-19T01:28:20.800Z,0.00
2024-02-19T01:29:20.808Z,0.00
2024-02-19T01:30:20.778Z,0.00
2024-02-19T01:31:20.786Z,0.00
2024-02-19T01:32:20.746Z,0.00
2024-02-19T01:33:20.773Z,0.00
2024-02-19T01:34:20.894Z,0.00
2024-02-19T01:35:20.725Z,0.00
2024-02-19T01:36:20.737Z,0.00
2024-02-19T01:37:20.768Z,0.00
2024-02-19T01:38:20.717Z,0.00
2024-02-19T01:39:20.678Z,0.00
2024-02-19T01:40:20.742Z,0.00
2024-02-19T01:41:20.657Z,0.00
2024-02-19T01:42:20.633Z,0.00
2024-02-19T01:43:20.696Z,0.00
2024-02-19T01:44:20.611Z,0.00
2024-02-19T01:45:20.627Z,0.00
2024-02-19T01:46:20.672Z,0.00
2024-02-19T01:47:20.594Z,0.00
2024-02-19T01:48:20.708Z,0.00
2024-02-19T01:49:20.845Z,0.00
2024-02-19T01:50:20.597Z,0.00
2024-02-19T01:51:20.541Z,0.00
2024-02-19T01:52:20.598Z,0.00
2024-02-19T01:53:20.537Z,0.00
2024-02-19T01:54:20.599Z,0.00
2024-02-19T01:55:20.532Z,0.00
2024-02-19T01:56:20.507Z,0.00
2024-02-19T01:57:20.495Z,0.00
2024-02-19T01:58:20.642Z,0.00
2024-02-19T01:59:20.501Z,0.00
2024-02-19T02:00:20.461Z,0.00
2024-02-19T02:01:20.572Z,0.00
2024-02-19T02:02:20.461Z,0.00
2024-02-19T02:03:20.523Z,0.00
2024-02-19T02:04:20.539Z,0.00
2024-02-19T02:05:20.415Z,0.00
2024-02-19T02:06:20.551Z,0.00
2024-02-19T02:07:20.413Z,0.00
2024-02-19T02:08:20.400Z,0.00
2024-02-19T02:09:20.366Z,0.00
2024-02-19T02:10:20.386Z,0.00
2024-02-19T02:11:20.383Z,0.00
2024-02-19T02:12:20.330Z,0.00
2024-02-19T02:13:20.482Z,0.00
2024-02-19T02:14:20.312Z,0.00
2024-02-19T02:15:20.339Z,0.00
2024-02-19T02:16:20.343Z,0.00
2024-02-19T02:17:20.276Z,0.00
2024-02-19T02:18:20.390Z,0.00
2024-02-19T02:19:20.318Z,0.00
2024-02-19T02:20:20.257Z,0.00
2024-02-19T02:21:20.224Z,0.00
2024-02-19T02:22:20.311Z,0.00
2024-02-19T02:23:20.234Z,0.00
2024-02-19T02:24:20.229Z,0.00
2024-02-19T02:25:20.338Z,0.00
2024-02-19T02:26:20.273Z,0.00
2024-02-19T02:27:20.183Z,0.00
2024-02-19T02:28:20.256Z,0.00
2024-02-19T02:29:20.172Z,0.00
2024-02-19T02:30:20.162Z,0.00
2024-02-19T02:31:20.298Z,0.00
2024-02-19T02:32:20.127Z,0.00
2024-02-19T02:33:20.234Z,0.00
2024-02-19T02:34:20.340Z,0.00
2024-02-19T02:35:20.102Z,0.00
2024-02-19T02:36:20.104Z,0.00
2024-02-19T02:37:20.172Z,0.00
2024-02-19T02:38:20.098Z,0.00
2024-02-19T02:39:20.110Z,0.00
2024-02-19T02:40:20.203Z,0.00
2024-02-19T02:41:20.026Z,0.00
2024-02-19T02:42:20.047Z,0.00
2024-02-19T02:43:20.122Z,0.00
2024-02-19T02:44:20.079Z,0.00
2024-02-19T02:45:19.987Z,0.00
2024-02-19T02:46:20.205Z,0.00
2024-02-19T02:47:19.993Z,0.00
2024-02-19T02:48:20.046Z,0.00
2024-02-19T02:49:20.092Z,0.00
2024-02-19T02:50:19.941Z,0.00
2024-02-19T02:51:19.934Z,0.00
2024-02-19T02:52:19.993Z,0.00
2024-02-19T02:53:19.923Z,0.00
2024-02-19T02:54:19.917Z,0.00
2024-02-19T02:55:19.956Z,0.00
2024-02-19T02:56:19.888Z,0.00
2024-02-19T02:57:19.882Z,0.00
2024-02-19T02:58:19.924Z,0.00
2024-02-19T02:59:19.856Z,0.00
2024-02-19T03:00:19.843Z,0.00
2024-02-19T03:01:20.012Z,0.00
2024-02-19T03:02:19.834Z,0.00
2024-02-19T03:03:19.828Z,0.00
2024-02-19T03:04:19.937Z,0.00
2024-02-19T03:05:19.819Z,0.00
2024-02-19T03:06:19.817Z,0.00
2024-02-19T03:07:19.880Z,0.00
2024-02-19T03:08:19.754Z,0.00
2024-02-19T03:09:19.735Z,0.00
2024-02-19T03:10:19.783Z,0.00
2024-02-19T03:11:19.796Z,0.00
2024-02-19T03:12:19.724Z,0.00
2024-02-19T03:13:19.731Z,0.00
2024-02-19T03:14:19.709Z,0.00
2024-02-19T03:15:19.703Z,0.00
2024-02-19T03:16:19.773Z,0.00
2024-02-19T03:17:19.727Z,0.00
2024-02-19T03:18:19.787Z,0.00
2024-02-19T03:19:19.942Z,0.00
2024-02-19T03:20:19.886Z,0.00
2024-02-19T03:21:19.765Z,0.00
2024-02-19T03:22:19.655Z,0.00
2024-02-19T03:23:19.614Z,0.00
2024-02-19T03:24:19.601Z,0.00
2024-02-19T03:25:19.619Z,0.00
2024-02-19T03:26:31.349Z,0.00
2024-02-19T03:27:19.565Z,0.00
2024-02-19T03:28:19.593Z,0.00
2024-02-19T03:29:19.553Z,0.00
2024-02-19T03:30:19.531Z,0.00
2024-02-19T03:31:19.542Z,0.00
2024-02-19T03:32:19.550Z,0.00
2024-02-19T03:33:19.574Z,0.00
2024-02-19T03:34:19.590Z,0.00
2024-02-19T03:35:19.487Z,0.00
2024-02-19T03:36:19.474Z,0.00
2024-02-19T03:37:19.535Z,0.00
2024-02-19T03:38:19.552Z,0.00
2024-02-19T03:39:19.465Z,0.00
2024-02-19T03:40:19.506Z,0.00
2024-02-19T03:41:19.413Z,0.00
2024-02-19T03:42:19.421Z,0.00
2024-02-19T03:43:19.506Z,0.00
2024-02-19T03:44:19.412Z,0.00
2024-02-19T03:45:19.379Z,0.00
2024-02-19T03:46:19.419Z,0.00
2024-02-19T03:47:19.378Z,0.00
2024-02-19T03:48:19.434Z,0.00
2024-02-19T03:49:19.503Z,0.00
2024-02-19T03:50:19.364Z,0.00
2024-02-19T03:51:19.350Z,0.00
2024-02-19T03:52:19.326Z,0.00
2024-02-19T03:53:19.313Z,0.00
2024-02-19T03:54:19.314Z,0.00
2024-02-19T03:55:19.386Z,0.00
2024-02-19T03:56:19.480Z,0.00
2024-02-19T03:57:19.287Z,0.00
2024-02-19T03:58:19.349Z,0.00
2024-02-19T03:59:19.263Z,0.00
2024-02-19T04:00:19.228Z,0.00
2024-02-19T04:01:19.324Z,0.00
2024-02-19T04:02:19.210Z,0.00
2024-02-19T04:03:19.257Z,0.00
2024-02-19T04:04:19.321Z,0.00
2024-02-19T04:05:19.188Z,0.00
2024-02-19T04:06:19.186Z,0.00
2024-02-19T04:07:19.185Z,0.00
2024-02-19T04:08:19.214Z,0.00
2024-02-19T04:09:19.135Z,0.00
2024-02-19T04:10:19.155Z,0.00
2024-02-19T04:11:19.113Z,0.00
2024-02-19T04:12:19.108Z,0.00
2024-02-19T04:13:19.160Z,0.00
2024-02-19T04:14:19.088Z,0.00
2024-02-19T04:15:19.077Z,0.00
2024-02-19T04:16:19.133Z,0.00
2024-02-19T04:17:19.072Z,0.00
2024-02-19T04:18:19.100Z,1.00
2024-02-19T04:19:19.034Z,1.00
2024-02-19T04:20:19.038Z,0.00
2024-02-19T04:21:19.044Z,0.00
2024-02-19T04:22:19.102Z,0.00
2024-02-19T04:23:19.016Z,0.00
2024-02-19T04:24:18.985Z,0.00
2024-02-19T04:25:19.018Z,0.00
2024-02-19T04:26:19.004Z,0.00
2024-02-19T04:27:19.031Z,0.00
2024-02-19T04:28:19.014Z,0.00
2024-02-19T04:29:18.939Z,0.00
2024-02-19T04:30:18.950Z,0.00
2024-02-19T04:31:18.993Z,0.00
2024-02-19T04:32:18.905Z,0.00
2024-02-19T04:33:19.073Z,0.00
2024-02-19T04:34:19.027Z,0.00
2024-02-19T04:35:18.884Z,0.00
2024-02-19T04:36:18.896Z,0.00
2024-02-19T04:37:19.017Z,0.00
2024-02-19T04:38:18.833Z,0.00
2024-02-19T04:39:18.846Z,0.00
2024-02-19T04:40:18.878Z,0.00
2024-02-19T04:41:18.863Z,0.00
2024-02-19T04:42:18.828Z,0.00
2024-02-19T04:43:18.840Z,0.00
2024-02-19T04:44:18.788Z,0.00
2024-02-19T04:45:18.816Z,0.00
2024-02-19T04:46:18.804Z,0.00
2024-02-19T04:47:18.746Z,0.00
2024-02-19T04:48:18.736Z,0.00
2024-02-19T04:49:18.996Z,0.00
2024-02-19T04:50:18.817Z,0.00
2024-02-19T04:51:18.708Z,0.00
2024-02-19T04:52:18.833Z,0.00
2024-02-19T04:53:18.686Z,0.00
2024-02-19T04:54:18.680Z,0.00
2024-02-19T04:55:18.755Z,0.00
2024-02-19T04:56:18.676Z,0.00
2024-02-19T04:57:18.682Z,0.00
2024-02-19T04:58:18.766Z,0.00
2024-02-19T04:59:18.628Z,0.00
2024-02-19T05:00:18.617Z,0.00
2024-02-19T05:01:18.667Z,0.00
2024-02-19T05:02:18.636Z,0.00
2024-02-19T05:03:18.787Z,0.00
2024-02-19T05:04:18.738Z,0.00
2024-02-19T05:05:18.624Z,0.00
2024-02-19T05:06:18.650Z,0.00
2024-02-19T05:07:18.716Z,0.00
2024-02-19T05:08:18.553Z,0.00
2024-02-19T05:09:18.533Z,0.00
2024-02-19T05:10:18.621Z,0.00
2024-02-19T05:11:18.551Z,0.00
2024-02-19T05:12:18.525Z,0.00
2024-02-19T05:13:18.546Z,0.00
2024-02-19T05:14:18.504Z,0.00
2024-02-19T05:15:18.449Z,0.00
2024-02-19T05:16:18.682Z,0.00
2024-02-19T05:17:18.431Z,0.00
2024-02-19T05:18:18.508Z,0.00
2024-02-19T05:19:18.686Z,0.00
2024-02-19T05:20:18.505Z,0.00
2024-02-19T05:21:18.517Z,0.00
2024-02-19T05:22:18.482Z,0.00
2024-02-19T05:23:18.497Z,0.00
2024-02-19T05:24:18.379Z,0.00
2024-02-19T05:25:18.450Z,0.00
2024-02-19T05:26:18.354Z,2.00
2024-02-19T05:27:18.279Z,1.00
2024-02-19T05:28:18.421Z,0.00
2024-02-19T05:29:18.314Z,0.00
2024-02-19T05:30:18.311Z,0.00
2024-02-19T05:31:18.342Z,0.00
2024-02-19T05:32:20.370Z,0.00
2024-02-19T05:33:18.321Z,1.00
2024-02-19T05:34:18.297Z,0.00
2024-02-19T05:35:18.306Z,0.00
2024-02-19T05:36:18.270Z,0.00
2024-02-19T05:37:18.330Z,0.00
2024-02-19T05:38:18.255Z,0.00
2024-02-19T05:39:18.200Z,0.00
2024-02-19T05:40:18.272Z,0.00
2024-02-19T05:41:18.267Z,0.00
2024-02-19T05:42:18.196Z,0.00
2024-02-19T05:43:18.350Z,0.00
2024-02-19T05:44:18.175Z,0.00
2024-02-19T05:45:18.147Z,0.00
2024-02-19T05:46:18.240Z,0.00
2024-02-19T05:47:18.144Z,0.00
2024-02-19T05:48:18.210Z,0.00
2024-02-19T05:49:18.314Z,0.00
2024-02-19T05:50:18.651Z,0.00
2024-02-19T05:51:18.095Z,0.00
2024-02-19T05:52:18.157Z,0.00
2024-02-19T05:53:18.161Z,0.00
2024-02-19T05:54:18.056Z,0.00
2024-02-19T05:55:18.122Z,0.00
2024-02-19T05:56:18.039Z,0.00
2024-02-19T05:57:17.967Z,1.00
2024-02-19T05:58:18.153Z,1.00
2024-02-19T05:59:17.993Z,1.00
2024-02-19T06:00:17.996Z,1.00
2024-02-19T06:01:18.559Z,1.00
2024-02-19T06:02:18.042Z,1.00
2024-02-19T06:03:18.016Z,1.00
2024-02-19T06:04:18.300Z,1.00
2024-02-19T06:05:18.065Z,2.00
2024-02-19T06:06:18.040Z,3.00
2024-02-19T06:07:17.923Z,3.00
2024-02-19T06:08:17.939Z,3.00
2024-02-19T06:09:17.849Z,6.00
2024-02-19T06:10:17.954Z,5.00
2024-02-19T06:11:17.859Z,8.00
2024-02-19T06:12:17.812Z,10.00
2024-02-19T06:13:17.886Z,11.00
2024-02-19T06:14:17.828Z,9.00
2024-02-19T06:15:17.767Z,13.00
2024-02-19T06:16:17.854Z,22.00
2024-02-19T06:17:17.741Z,28.00
2024-02-19T06:18:17.868Z,39.00
2024-02-19T06:19:17.870Z,48.00
2024-02-19T06:20:17.761Z,51.00
2024-02-19T06:21:17.702Z,44.00
2024-02-19T06:22:24.193Z,38.00
2024-02-19T06:23:17.728Z,39.00
2024-02-19T06:24:17.717Z,35.00
2024-02-19T06:25:17.706Z,48.00
2024-02-19T06:26:18.603Z,62.00
2024-02-19T06:27:17.686Z,68.00
2024-02-19T06:28:17.791Z,72.00
2024-02-19T06:29:17.636Z,72.00
2024-02-19T06:30:17.649Z,72.00
2024-02-19T06:31:17.680Z,73.00
2024-02-19T06:32:17.647Z,74.00
2024-02-19T06:33:17.742Z,75.00
2024-02-19T06:34:17.725Z,81.00
2024-02-19T06:35:17.644Z,85.00
2024-02-19T06:36:17.547Z,94.00
2024-02-19T06:37:17.680Z,98.00
2024-02-19T06:38:17.549Z,100.00
2024-02-19T06:39:17.536Z,105.00
2024-02-19T06:40:17.544Z,111.00
2024-02-19T06:41:17.498Z,112.00
2024-02-19T06:42:17.523Z,114.00
2024-02-19T06:43:17.528Z,116.00
2024-02-19T06:44:17.497Z,120.00
2024-02-19T06:45:17.467Z,118.00
2024-02-19T06:46:17.485Z,126.00
2024-02-19T06:47:17.456Z,132.00
2024-02-19T06:48:17.527Z,134.00
2024-02-19T06:49:17.575Z,128.00
2024-02-19T06:50:17.499Z,124.00
2024-02-19T06:51:17.434Z,134.00
2024-02-19T06:52:17.437Z,145.00
2024-02-19T06:53:17.379Z,148.00
2024-02-19T06:54:17.372Z,162.00
2024-02-19T06:55:17.453Z,175.00
2024-02-19T06:56:17.495Z,185.00
2024-02-19T06:57:17.342Z,202.00
2024-02-19T06:58:17.335Z,212.00
2024-02-19T06:59:17.338Z,225.00
2024-02-19T07:00:17.350Z,269.00
2024-02-19T07:01:17.447Z,322.00
2024-02-19T07:02:17.340Z,399.00
2024-02-19T07:03:17.284Z,464.00
2024-02-19T07:04:17.338Z,579.00
2024-02-19T07:05:17.367Z,708.00
2024-02-19T07:06:17.288Z,804.00
2024-02-19T07:07:17.263Z,871.00
2024-02-19T07:08:17.235Z,1068.00
2024-02-19T07:09:17.241Z,1045.00
2024-02-19T07:10:17.308Z,953.00
2024-02-19T07:11:17.234Z,925.00
2024-02-19T07:12:17.215Z,876.00
2024-02-19T07:13:17.244Z,972.00
2024-02-19T07:14:17.182Z,1527.00
2024-02-19T07:15:17.167Z,1221.00
2024-02-19T07:16:17.163Z,986.00
2024-02-19T07:17:17.180Z,956.00
2024-02-19T07:18:17.172Z,1101.00
2024-02-19T07:19:17.223Z,1132.00
2024-02-19T07:20:17.191Z,1110.00
2024-02-19T07:21:17.107Z,958.00
2024-02-19T07:22:17.222Z,868.00
2024-02-19T07:23:17.076Z,848.00
2024-02-19T07:24:17.100Z,817.00
2024-02-19T07:25:21.388Z,668.00
2024-02-19T07:26:17.125Z,766.00
2024-02-19T07:27:17.026Z,869.00
2024-02-19T07:28:17.013Z,737.00
2024-02-19T07:29:17.058Z,697.00
2024-02-19T07:30:17.054Z,649.00
2024-02-19T07:31:17.074Z,553.00
2024-02-19T07:32:16.962Z,536.00
2024-02-19T07:33:17.041Z,555.00
2024-02-19T07:34:17.096Z,608.00
2024-02-19T07:35:17.111Z,713.00
2024-02-19T07:36:17.832Z,714.00
2024-02-19T07:37:16.974Z,717.00
2024-02-19T07:38:16.925Z,814.00
2024-02-19T07:39:16.909Z,953.00
2024-02-19T07:40:17.002Z,1031.00
2024-02-19T07:41:16.884Z,1055.00
2024-02-19T07:42:16.881Z,1005.00
2024-02-19T07:43:16.919Z,1047.00
2024-02-19T07:44:16.904Z,1150.00
2024-02-19T07:45:16.845Z,1342.00
2024-02-19T07:46:16.871Z,1497.00
2024-02-19T07:47:16.847Z,1544.00
2024-02-19T07:48:17.023Z,1627.00
2024-02-19T07:49:16.871Z,1768.00
2024-02-19T07:50:16.831Z,1958.00
2024-02-19T07:51:16.799Z,2008.00
2024-02-19T07:52:16.799Z,1731.00
2024-02-19T07:53:18.051Z,1762.00
2024-02-19T07:54:16.738Z,1863.00
2024-02-19T07:55:16.804Z,1879.00
2024-02-19T07:56:16.716Z,1967.00
2024-02-19T07:57:16.726Z,2216.00
2024-02-19T07:58:16.731Z,2465.00
2024-02-19T07:59:16.701Z,1915.00
2024-02-19T08:00:16.686Z,2440.00
2024-02-19T08:01:16.817Z,2200.00
2024-02-19T08:02:16.745Z,2887.00
2024-02-19T08:03:17.672Z,2457.00
2024-02-19T08:04:16.820Z,2171.00
2024-02-19T08:05:16.847Z,2527.00
2024-02-19T08:06:16.667Z,2303.00
2024-02-19T08:07:18.254Z,2314.00
2024-02-19T08:08:17.212Z,2169.00
2024-02-19T08:09:17.344Z,2257.00
2024-02-19T08:10:16.706Z,2115.00
2024-02-19T08:11:17.411Z,2003.00
2024-02-19T08:12:16.751Z,2039.00
2024-02-19T08:13:16.877Z,2069.00
2024-02-19T08:14:16.705Z,2114.00
2024-02-19T08:15:16.553Z,1941.00
2024-02-19T08:16:16.662Z,1847.00
2024-02-19T08:17:16.516Z,1845.00
2024-02-19T08:18:16.608Z,1919.00
2024-02-19T08:19:16.680Z,1894.00
2024-02-19T08:20:16.535Z,1834.00
2024-02-19T08:21:16.501Z,1939.00
2024-02-19T08:22:16.497Z,2083.00
2024-02-19T08:23:16.443Z,2199.00
2024-02-19T08:24:16.452Z,2102.00
2024-02-19T08:25:16.526Z,2118.00
2024-02-19T08:26:16.460Z,1977.00
2024-02-19T08:27:16.407Z,1885.00
2024-02-19T08:28:16.431Z,1996.00
2024-02-19T08:29:16.395Z,1878.00
2024-02-19T08:30:16.385Z,1876.00
2024-02-19T08:31:16.426Z,1988.00
2024-02-19T08:32:16.404Z,1986.00
2024-02-19T08:33:16.353Z,1923.00
2024-02-19T08:34:18.087Z,1857.00
2024-02-19T08:35:16.415Z,1858.00
2024-02-19T08:36:16.367Z,1964.00
2024-02-19T08:37:16.337Z,1929.00
2024-02-19T08:38:16.297Z,1875.00
2024-02-19T08:39:16.863Z,1746.00
2024-02-19T08:40:16.345Z,1688.00
2024-02-19T08:41:16.257Z,1661.00
2024-02-19T08:42:16.287Z,1681.00
2024-02-19T08:43:16.287Z,1666.00
2024-02-19T08:44:16.238Z,1648.00
2024-02-19T08:45:18.623Z,1697.00
2024-02-19T08:46:16.275Z,1696.00
2024-02-19T08:47:16.206Z,1748.00
2024-02-19T08:48:16.297Z,1805.00
2024-02-19T08:49:16.276Z,1816.00
2024-02-19T08:50:16.259Z,1765.00
2024-02-19T08:51:16.182Z,1793.00
2024-02-19T08:52:16.210Z,1809.00
2024-02-19T08:53:16.162Z,1762.00
2024-02-19T08:54:16.185Z,1656.00
2024-02-19T08:55:16.154Z,1608.00
2024-02-19T08:56:16.107Z,1562.00
2024-02-19T08:57:16.122Z,1597.00
2024-02-19T08:58:16.172Z,1621.00
2024-02-19T08:59:16.129Z,1618.00
2024-02-19T09:00:16.073Z,1604.00
2024-02-19T09:01:16.209Z,1490.00
2024-02-19T09:02:16.138Z,1463.00
2024-02-19T09:03:16.077Z,1466.00
2024-02-19T09:04:16.155Z,1489.00
2024-02-19T09:05:16.102Z,1577.00
2024-02-19T09:06:16.113Z,1625.00
2024-02-19T09:07:16.156Z,1552.00
2024-02-19T09:08:15.997Z,1484.00
2024-02-19T09:09:15.982Z,1493.00
2024-02-19T09:10:16.183Z,1479.00
2024-02-19T09:11:16.021Z,1433.00
2024-02-19T09:12:15.966Z,1498.00
2024-02-19T09:13:16.004Z,1618.00
2024-02-19T09:14:15.936Z,1629.00
2024-02-19T09:15:15.945Z,1598.00
2024-02-19T09:16:15.983Z,1724.00
2024-02-19T09:17:15.908Z,1830.00
2024-02-19T09:18:15.970Z,1819.00
2024-02-19T09:19:15.973Z,1830.00
2024-02-19T09:20:15.934Z,1797.00
2024-02-19T09:21:15.886Z,1750.00
2024-02-19T09:22:15.916Z,1761.00
2024-02-19T09:23:15.870Z,1817.00
2024-02-19T09:24:15.827Z,1861.00
2024-02-19T09:25:15.924Z,1992.00
2024-02-19T09:26:15.821Z,2101.00
2024-02-19T09:27:15.828Z,2151.00
2024-02-19T09:28:15.819Z,2121.00
2024-02-19T09:29:17.353Z,1957.00
2024-02-19T09:30:15.779Z,1861.00
2024-02-19T09:31:15.837Z,1773.00
2024-02-19T09:32:15.745Z,1629.00
2024-02-19T09:33:15.894Z,1551.00
2024-02-19T09:34:15.789Z,1554.00
2024-02-19T09:35:15.778Z,1574.00
2024-02-19T09:36:15.727Z,1595.00
2024-02-19T09:37:15.751Z,1571.00
2024-02-19T09:38:15.738Z,1566.00
2024-02-19T09:39:15.688Z,1539.00
2024-02-19T09:40:15.745Z,1563.00
2024-02-19T09:41:15.716Z,1576.00
2024-02-19T09:42:15.636Z,1552.00
2024-02-19T09:43:15.685Z,1547.00
2024-02-19T09:44:15.631Z,1583.00
2024-02-19T09:45:15.637Z,1671.00
2024-02-19T09:46:15.733Z,1748.00
2024-02-19T09:47:15.640Z,1800.00
2024-02-19T09:48:15.706Z,1790.00
2024-02-19T09:49:15.783Z,1778.00
2024-02-19T09:50:15.709Z,1771.00
2024-02-19T09:51:21.926Z,1801.00
2024-02-19T09:52:15.548Z,1778.00
2024-02-19T09:53:15.611Z,1821.00
2024-02-19T09:54:15.526Z,1845.00
2024-02-19T09:55:15.525Z,1841.00
2024-02-19T09:56:15.538Z,1873.00
2024-02-19T09:57:15.511Z,1862.00
2024-02-19T09:58:15.545Z,1851.00
2024-02-19T09:59:15.460Z,1844.00
2024-02-19T10:00:15.453Z,1837.00
2024-02-19T10:01:15.523Z,1868.00
2024-02-19T10:02:15.465Z,1913.00
2024-02-19T10:03:15.446Z,2005.00
2024-02-19T10:04:15.646Z,2040.00
2024-02-19T10:05:15.788Z,2082.00
2024-02-19T10:06:15.520Z,2099.00
2024-02-19T10:07:15.525Z,2022.00
2024-02-19T10:08:15.427Z,1975.00
2024-02-19T10:09:15.404Z,1979.00
2024-02-19T10:10:15.385Z,1936.00
2024-02-19T10:11:15.396Z,2017.00
2024-02-19T10:12:15.369Z,2092.00
2024-02-19T10:13:15.847Z,2061.00
2024-02-19T10:14:15.335Z,1951.00
2024-02-19T10:15:15.384Z,1971.00
2024-02-19T10:16:15.346Z,1990.00
2024-02-19T10:17:15.302Z,2078.00
2024-02-19T10:18:15.371Z,2075.00
2024-02-19T10:19:15.388Z,2008.00
2024-02-19T10:20:15.306Z,1996.00
2024-02-19T10:21:15.251Z,1900.00
2024-02-19T10:22:15.251Z,1943.00
2024-02-19T10:23:15.271Z,2078.00
2024-02-19T10:24:15.231Z,2192.00
2024-02-19T10:25:15.230Z,2083.00
2024-02-19T10:26:15.216Z,1966.00
2024-02-19T10:27:15.198Z,1863.00
2024-02-19T10:28:15.263Z,1629.00
2024-02-19T10:29:15.258Z,1687.00
2024-02-19T10:30:15.162Z,1744.00
2024-02-19T10:31:15.377Z,1810.00
2024-02-19T10:32:15.143Z,1792.00
2024-02-19T10:33:15.226Z,1842.00
2024-02-19T10:34:15.192Z,1931.00
2024-02-19T10:35:15.102Z,2033.00
2024-02-19T10:36:15.258Z,2059.00
2024-02-19T10:37:15.111Z,2064.00
2024-02-19T10:38:15.064Z,2014.00
2024-02-19T10:39:15.087Z,1961.00
2024-02-19T10:40:15.571Z,1958.00
2024-02-19T10:41:15.194Z,1866.00
2024-02-19T10:42:15.026Z,2033.00
2024-02-19T10:43:15.074Z,2133.00
2024-02-19T10:44:14.998Z,2126.00
2024-02-19T10:45:15.794Z,2038.00
2024-02-19T10:46:15.044Z,2158.00
2024-02-19T10:47:15.030Z,2228.00
2024-02-19T10:48:15.118Z,2246.00
2024-02-19T10:49:15.063Z,2268.00
2024-02-19T10:50:15.144Z,2291.00
2024-02-19T10:51:15.210Z,2223.00
2024-02-19T10:52:14.987Z,2533.00
2024-02-19T10:53:15.814Z,2601.00
2024-02-19T10:54:14.934Z,2433.00
2024-02-19T10:55:17.923Z,2381.00
2024-02-19T10:56:14.924Z,2393.00
2024-02-19T10:57:14.900Z,2007.00
2024-02-19T10:58:15.117Z,2083.00
2024-02-19T10:59:14.956Z,2099.00
2024-02-19T11:00:15.055Z,2115.00
2024-02-19T11:01:16.623Z,2147.00
2024-02-19T11:02:14.956Z,2315.00
2024-02-19T11:03:15.116Z,2456.00
2024-02-19T11:04:14.869Z,2706.00
2024-02-19T11:05:14.824Z,2867.00
2024-02-19T11:06:14.822Z,2925.00
2024-02-19T11:07:14.816Z,3237.00
2024-02-19T11:08:14.810Z,3527.00
2024-02-19T11:09:14.774Z,3696.00
2024-02-19T11:10:14.797Z,3837.00
2024-02-19T11:11:14.858Z,3503.00
2024-02-19T11:12:14.813Z,3709.00
2024-02-19T11:13:14.784Z,3802.00
2024-02-19T11:14:14.701Z,3626.00
2024-02-19T11:15:14.676Z,3601.00
2024-02-19T11:16:14.705Z,3614.00
2024-02-19T11:17:14.701Z,3841.00
2024-02-19T11:18:15.531Z,4011.00
2024-02-19T11:19:14.795Z,4117.00
2024-02-19T11:20:14.655Z,3848.00
2024-02-19T11:21:14.704Z,4819.00
2024-02-19T11:22:14.657Z,4196.00
2024-02-19T11:23:14.676Z,4078.00
2024-02-19T11:24:14.656Z,4344.00
2024-02-19T11:25:14.656Z,4133.00
2024-02-19T11:26:14.683Z,3654.00
2024-02-19T11:27:14.602Z,5362.00
2024-02-19T11:28:14.694Z,3824.00
2024-02-19T11:29:14.573Z,3233.00
2024-02-19T11:30:14.551Z,4969.00
2024-02-19T11:31:14.590Z,4705.00
2024-02-19T11:32:14.569Z,3119.00
2024-02-19T11:33:14.546Z,4139.00
2024-02-19T11:34:14.558Z,4641.00
2024-02-19T11:35:14.487Z,3796.00
2024-02-19T11:36:14.503Z,4202.00
2024-02-19T11:37:14.497Z,2964.00
2024-02-19T11:38:14.450Z,3192.00
2024-02-19T11:39:14.446Z,4358.00
2024-02-19T11:40:14.477Z,4290.00
2024-02-19T11:41:14.483Z,4241.00
2024-02-19T11:42:14.429Z,3964.00
2024-02-19T11:43:14.435Z,3663.00
2024-02-19T11:44:14.377Z,3814.00
2024-02-19T11:45:14.404Z,3847.00
2024-02-19T11:46:14.411Z,4310.00
2024-02-19T11:47:14.373Z,3888.00
2024-02-19T11:48:14.473Z,3935.00
2024-02-19T11:49:14.413Z,3900.00
2024-02-19T11:50:14.368Z,3838.00
2024-02-19T11:51:14.321Z,3746.00
2024-02-19T11:52:14.345Z,3383.00
2024-02-19T11:53:14.434Z,3512.00
2024-02-19T11:54:14.314Z,3702.00
2024-02-19T11:55:14.372Z,3629.00
2024-02-19T11:56:14.348Z,3576.00
2024-02-19T11:57:14.458Z,3518.00
2024-02-19T11:58:14.368Z,3430.00
2024-02-19T11:59:14.233Z,3419.00
2024-02-19T12:00:14.241Z,3408.00
2024-02-19T12:01:14.359Z,3279.00
2024-02-19T12:02:14.506Z,3080.00
2024-02-19T12:03:14.210Z,3276.00
2024-02-19T12:04:14.242Z,3133.00
2024-02-19T12:05:14.255Z,2913.00
2024-02-19T12:06:14.185Z,2777.00
2024-02-19T12:07:14.229Z,2879.00
2024-02-19T12:08:14.187Z,2836.00
2024-02-19T12:09:14.170Z,2811.00
2024-02-19T12:10:14.236Z,2890.00
2024-02-19T12:11:14.214Z,2911.00
2024-02-19T12:12:14.125Z,2703.00
2024-02-19T12:13:14.118Z,2333.00
2024-02-19T12:14:14.105Z,2031.00
2024-02-19T12:15:14.371Z,1950.00
2024-02-19T12:16:14.133Z,2140.00
2024-02-19T12:17:14.044Z,2275.00
2024-02-19T12:18:14.112Z,2294.00
2024-02-19T12:19:14.147Z,2100.00
2024-02-19T12:20:14.122Z,2092.00
2024-02-19T12:21:14.022Z,2030.00
2024-02-19T12:22:14.061Z,1888.00
2024-02-19T12:23:21.844Z,1640.00
2024-02-19T12:24:13.986Z,1630.00
2024-02-19T12:25:14.238Z,1877.00
2024-02-19T12:26:14.017Z,2128.00
2024-02-19T12:27:14.012Z,2200.00
2024-02-19T12:28:14.082Z,2243.00
2024-02-19T12:29:13.961Z,2184.00
2024-02-19T12:30:13.971Z,2074.00
2024-02-19T12:31:14.143Z,1979.00
2024-02-19T12:32:13.895Z,1996.00
2024-02-19T12:33:14.089Z,1996.00
2024-02-19T12:34:14.094Z,2052.00
2024-02-19T12:35:14.075Z,2091.00
2024-02-19T12:36:14.028Z,2195.00
2024-02-19T12:37:13.914Z,2322.00
2024-02-19T12:38:13.896Z,2459.00
2024-02-19T12:39:13.827Z,2584.00
2024-02-19T12:40:13.855Z,2674.00
2024-02-19T12:41:13.814Z,2772.00
2024-02-19T12:42:13.966Z,2824.00